Time;durP1;ratioP1;P1;durP2;ratioP2;P2;SDS_P1;SDS_P2;PMS_P1;PMS_P2;Temp;Humidity;BMP_temperature;BMP_pressure;BME280_temperature;BME280_humidity;BME280_pressure;Samples;Min_cycle;Max_cycle;Signal;HPM_P1;HPM_P2
2023/12/14 00:00:45;;;;;;;205.50;34.90;;;;;;;2.03;100.00;95244.67;107991;1281;22553;-80
2023/12/14 00:03:35;;;;;;;263.30;36.30;;;;;;;1.98;100.00;95242.88;107976;1281;22536;-80
2023/12/14 00:06:03;;;;;;;253.50;35.10;;;;;;;1.94;100.00;95244.64;107982;1270;22573;-80
2023/12/14 00:08:32;;;;;;;92.20;26.60;;;;;;;1.90;100.00;95245.46;107988;1281;22556;-80
2023/12/14 00:11:05;;;;;;;141.80;28.20;;;;;;;1.86;100.00;95243.64;107981;1277;22523;-80
2023/12/14 00:13:33;;;;;;;212.80;35.00;;;;;;;1.84;100.00;95246.98;108032;1281;24240;-80
2023/12/14 00:16:02;;;;;;;359.90;42.60;;;;;;;1.82;100.00;95247.83;107961;1281;23834;-80
2023/12/14 00:18:32;;;;;;;122.60;35.50;;;;;;;1.81;100.00;95249.35;107971;1274;22535;-80
2023/12/14 00:21:00;;;;;;;197.50;41.00;;;;;;;1.83;100.00;95254.08;107951;1281;24503;-80
2023/12/14 00:23:29;;;;;;;280.80;42.80;;;;;;;1.86;100.00;95251.58;107988;1281;22533;-80
2023/12/14 00:25:57;;;;;;;98.80;38.00;;;;;;;1.87;100.00;95251.42;107997;1281;25411;-80
2023/12/14 00:28:27;;;;;;;75.00;34.60;;;;;;;1.90;100.00;95255.09;108010;1274;22549;-80
2023/12/14 00:30:56;;;;;;;71.30;33.20;;;;;;;1.93;100.00;95254.30;107956;1281;22655;-80
2023/12/14 00:33:24;;;;;;;103.80;32.50;;;;;;;1.96;100.00;95255.31;108002;1275;25385;-80
2023/12/14 00:35:53;;;;;;;107.90;31.10;;;;;;;1.98;100.00;95255.17;107950;1281;22602;-80
2023/12/14 00:38:21;;;;;;;85.30;30.30;;;;;;;1.99;100.00;95255.64;107970;1281;22581;-80
2023/12/14 00:40:49;;;;;;;84.30;30.70;;;;;;;2.02;100.00;95261.77;107986;1281;25349;-80
2023/12/14 00:43:17;;;;;;;92.90;31.40;;;;;;;2.04;100.00;95264.54;107986;1274;22572;-80
2023/12/14 00:45:46;;;;;;;80.60;28.00;;;;;;;2.06;100.00;95265.22;107996;1277;22555;-80
2023/12/14 00:48:14;;;;;;;90.20;30.10;;;;;;;2.07;100.00;95269.51;107986;1281;24116;-80
2023/12/14 00:50:44;;;;;;;60.00;28.30;;;;;;;2.09;100.00;95273.86;107999;1274;22570;-80
2023/12/14 00:53:14;;;;;;;88.30;30.90;;;;;;;2.11;100.00;95274.86;107999;1281;22552;-80
2023/12/14 00:55:43;;;;;;;114.20;32.20;;;;;;;2.10;100.00;95283.52;107941;1274;24231;-80
2023/12/14 00:58:13;;;;;;;156.20;34.00;;;;;;;2.07;100.00;95286.70;107980;1274;22538;-80
2023/12/14 01:00:41;;;;;;;232.20;34.50;;;;;;;2.04;100.00;95287.60;108056;1281;22562;-80
2023/12/14 01:03:13;;;;;;;153.10;35.10;;;;;;;2.01;100.00;95289.63;108017;1281;22531;-80
2023/12/14 01:05:41;;;;;;;93.20;33.20;;;;;;;1.98;100.00;95295.74;107961;1281;22573;-80
2023/12/14 01:08:10;;;;;;;88.10;33.90;;;;;;;2.00;100.00;95296.06;108008;1275;22573;-80
2023/12/14 01:10:38;;;;;;;78.40;32.90;;;;;;;2.03;100.00;95301.34;107994;1281;24405;-80
2023/12/14 01:13:07;;;;;;;91.90;32.50;;;;;;;2.02;100.00;95302.91;108004;1282;25443;-80
2023/12/14 01:15:36;;;;;;;86.80;29.50;;;;;;;2.02;100.00;95300.04;107962;1281;25577;-80
2023/12/14 01:18:04;;;;;;;64.90;26.50;;;;;;;2.01;100.00;95301.17;107993;1281;22543;-80
2023/12/14 01:20:32;;;;;;;58.10;26.70;;;;;;;2.00;100.00;95299.77;108002;1281;24378;-80
2023/12/14 01:23:00;;;;;;;62.30;29.50;;;;;;;1.98;100.00;95297.67;107975;1281;22676;-80
2023/12/14 01:25:29;;;;;;;57.40;30.10;;;;;;;1.97;100.00;95297.52;107929;1275;22550;-80
2023/12/14 01:27:57;;;;;;;69.30;27.40;;;;;;;1.98;100.00;95303.32;107983;1281;24294;-80
2023/12/14 01:30:25;;;;;;;91.90;27.20;;;;;;;1.94;100.00;95302.60;107981;1275;22543;-80
2023/12/14 01:32:54;;;;;;;47.30;25.30;;;;;;;1.88;100.00;95302.90;107988;1281;25422;-80
2023/12/14 01:35:22;;;;;;;101.90;24.70;;;;;;;1.84;100.00;95302.37;107924;1281;24286;-80
2023/12/14 01:37:51;;;;;;;163.00;28.70;;;;;;;1.81;100.00;95302.23;107985;1281;23072;-80
2023/12/14 01:40:21;;;;;;;59.20;23.60;;;;;;;1.78;100.00;95306.30;108010;1281;22566;-80
2023/12/14 01:42:49;;;;;;;182.90;27.60;;;;;;;1.77;100.00;95307.34;107965;1281;22547;-80
2023/12/14 01:45:20;;;;;;;68.00;21.50;;;;;;;1.76;100.00;95304.83;107987;1274;25375;-80
2023/12/14 01:47:48;;;;;;;206.60;26.70;;;;;;;1.74;100.00;95308.16;107992;1281;22563;-80
2023/12/14 01:50:17;;;;;;;174.60;23.70;;;;;;;1.74;100.00;95305.09;107976;1275;22648;-80
2023/12/14 01:52:45;;;;;;;196.30;24.50;;;;;;;1.74;100.00;95308.85;107995;1281;22524;-80
2023/12/14 01:55:16;;;;;;;192.00;27.40;;;;;;;1.72;100.00;95307.23;107982;1274;22533;-80
2023/12/14 01:57:45;;;;;;;227.60;27.50;;;;;;;1.69;100.00;95311.13;107981;1271;25483;-80
2023/12/14 02:00:24;;;;;;;232.20;24.90;;;;;;;1.69;100.00;95313.01;107977;1281;22646;-80
2023/12/14 02:02:52;;;;;;;233.90;24.60;;;;;;;1.68;100.00;95316.64;107953;1281;25151;-80
2023/12/14 02:05:22;;;;;;;102.40;16.10;;;;;;;1.66;100.00;95321.08;107980;1278;22553;-80
2023/12/14 02:07:51;;;;;;;282.10;26.50;;;;;;;1.63;100.00;95325.24;108005;1274;22553;-80
2023/12/14 02:10:19;;;;;;;165.20;27.40;;;;;;;1.62;100.00;95325.29;108006;1281;25257;-80
2023/12/14 02:12:47;;;;;;;97.20;25.10;;;;;;;1.64;100.00;95325.20;107948;1274;22546;-80
2023/12/14 02:15:15;;;;;;;174.00;26.40;;;;;;;1.68;100.00;95328.25;107994;1281;22526;-80
2023/12/14 02:17:44;;;;;;;132.20;24.20;;;;;;;1.71;100.00;95324.63;107952;1282;28066;-80
2023/12/14 02:20:12;;;;;;;101.00;19.40;;;;;;;1.72;100.00;95329.80;107977;1282;22533;-80
2023/12/14 02:22:50;;;;;;;207.20;28.40;;;;;;;1.73;100.00;95327.03;107992;1282;22538;-80
2023/12/14 02:25:19;;;;;;;223.60;24.90;;;;;;;1.73;100.00;95329.44;108004;1274;25503;-80
2023/12/14 02:27:48;;;;;;;148.90;26.10;;;;;;;1.71;100.00;95327.65;107997;1275;22560;-80
2023/12/14 02:30:18;;;;;;;212.50;27.40;;;;;;;1.71;100.00;95327.54;107962;1275;25365;-80
2023/12/14 02:32:46;;;;;;;137.80;23.30;;;;;;;1.72;100.00;95322.27;107963;1281;22543;-80
2023/12/14 02:35:15;;;;;;;122.90;23.60;;;;;;;1.72;100.00;95323.01;107938;1282;22574;-80
2023/12/14 02:37:43;;;;;;;147.70;19.80;;;;;;;1.70;100.00;95321.33;107993;1282;22662;-80
2023/12/14 02:40:12;;;;;;;151.10;24.20;;;;;;;1.70;100.00;95322.67;107986;1280;22580;-80
2023/12/14 02:42:40;;;;;;;193.50;23.30;;;;;;;1.66;100.00;95324.16;107956;1270;23225;-80
2023/12/14 02:45:10;;;;;;;145.10;24.20;;;;;;;1.62;100.00;95329.36;107980;1277;23809;-80
2023/12/14 02:47:39;;;;;;;133.10;22.20;;;;;;;1.58;100.00;95333.95;108027;1282;25276;-80
2023/12/14 02:50:09;;;;;;;136.20;24.00;;;;;;;1.59;100.00;95340.89;107962;1281;25454;-80
2023/12/14 02:52:37;;;;;;;110.80;22.80;;;;;;;1.59;100.00;95340.37;107978;1281;22551;-80
2023/12/14 02:55:07;;;;;;;93.00;23.30;;;;;;;1.61;100.00;95339.96;107961;1281;24535;-80
2023/12/14 02:57:35;;;;;;;74.30;23.10;;;;;;;1.64;100.00;95339.83;107945;1280;24229;-80
2023/12/14 03:00:06;;;;;;;62.60;21.40;;;;;;;1.66;100.00;95338.27;107968;1274;22524;-80
2023/12/14 03:02:34;;;;;;;74.40;22.50;;;;;;;1.68;100.00;95340.68;107992;1282;22530;-80
2023/12/14 03:05:02;;;;;;;66.80;20.50;;;;;;;1.70;100.00;95345.10;107942;1275;22555;-80
2023/12/14 03:07:31;;;;;;;79.40;21.70;;;;;;;1.72;100.00;95348.45;107982;1281;22543;-80
2023/12/14 03:09:59;;;;;;;69.10;21.00;;;;;;;1.72;100.00;95348.23;107919;1275;117780;-80
2023/12/14 03:12:27;;;;;;;90.50;23.10;;;;;;;1.68;100.00;95352.17;107989;1281;22568;-80
2023/12/14 03:14:55;;;;;;;81.20;20.10;;;;;;;1.65;100.00;95351.95;108003;1281;25535;-80
2023/12/14 03:17:24;;;;;;;95.30;22.90;;;;;;;1.62;100.00;95355.38;107989;1281;22667;-80
2023/12/14 03:19:52;;;;;;;51.60;18.70;;;;;;;1.57;100.00;95363.20;107986;1280;22548;-80
2023/12/14 03:22:22;;;;;;;58.40;22.70;;;;;;;1.56;100.00;95364.55;107970;1281;22540;-80
2023/12/14 03:24:51;;;;;;;45.00;19.20;;;;;;;1.54;100.00;95370.16;107989;1281;23025;-80
2023/12/14 03:27:19;;;;;;;31.00;19.10;;;;;;;1.54;100.00;95372.19;107961;1281;22560;-80
2023/12/14 03:29:48;;;;;;;46.40;21.90;;;;;;;1.52;100.00;95378.66;107967;1275;22540;-80
2023/12/14 03:32:17;;;;;;;73.40;21.70;;;;;;;1.53;100.00;95380.70;107990;1282;21786;-80
2023/12/14 03:34:45;;;;;;;143.00;23.10;;;;;;;1.55;100.00;95386.63;108014;1281;22527;-80
2023/12/14 03:37:14;;;;;;;72.50;20.60;;;;;;;1.55;100.00;95391.36;107995;1274;24794;-80
2023/12/14 03:39:42;;;;;;;54.50;16.70;;;;;;;1.55;100.00;95403.98;108002;1281;26195;-80
2023/12/14 03:42:10;;;;;;;110.30;18.50;;;;;;;1.53;100.00;95406.24;108001;1281;24296;-80
2023/12/14 03:44:38;;;;;;;52.80;16.60;;;;;;;1.52;100.00;95416.01;107964;1274;22579;-80
2023/12/14 03:47:07;;;;;;;88.90;16.80;;;;;;;1.47;100.00;95415.93;107987;1281;24347;-80
2023/12/14 03:49:38;;;;;;;123.80;18.50;;;;;;;1.43;100.00;95424.47;108018;1282;22522;-80
2023/12/14 03:52:07;;;;;;;142.60;19.60;;;;;;;1.41;100.00;95425.97;107989;1274;22560;-80
2023/12/14 03:54:35;;;;;;;120.50;19.70;;;;;;;1.40;100.00;95432.00;107961;1279;22645;-80
2023/12/14 03:57:03;;;;;;;155.10;20.60;;;;;;;1.42;100.00;95433.70;107981;1281;22556;-80
2023/12/14 03:59:32;;;;;;;117.40;17.50;;;;;;;1.42;100.00;95436.73;108005;1282;22526;-80
2023/12/14 04:02:00;;;;;;;168.70;20.70;;;;;;;1.44;100.00;95443.11;107999;1281;24518;-80
2023/12/14 04:04:29;;;;;;;142.70;22.30;;;;;;;1.44;100.00;95444.95;108003;1278;22531;-80
2023/12/14 04:06:57;;;;;;;175.40;22.80;;;;;;;1.45;100.00;95446.94;107983;1277;22742;-80
2023/12/14 04:09:25;;;;;;;56.10;19.10;;;;;;;1.46;100.00;95450.81;107995;1281;22530;-80
2023/12/14 04:11:53;;;;;;;57.50;19.80;;;;;;;1.49;100.00;95449.11;107974;1281;24201;-80
2023/12/14 04:14:22;;;;;;;61.50;19.00;;;;;;;1.53;100.00;95449.49;108001;1281;22550;-80
2023/12/14 04:16:52;;;;;;;60.90;18.70;;;;;;;1.56;100.00;95447.23;107975;1274;26299;-80
2023/12/14 04:19:22;;;;;;;43.90;19.80;;;;;;;1.58;100.00;95448.34;108006;1281;22549;-80
2023/12/14 04:21:50;;;;;;;59.70;19.00;;;;;;;1.59;100.00;95447.88;107988;1281;22545;-81
2023/12/14 04:24:18;;;;;;;68.60;19.80;;;;;;;1.59;100.00;95452.84;107986;1281;22551;-80
2023/12/14 04:26:46;;;;;;;65.90;19.10;;;;;;;1.56;100.00;95449.23;107987;1281;22565;-80
2023/12/14 04:29:15;;;;;;;50.00;18.00;;;;;;;1.55;100.00;95450.10;108014;1280;22533;-80
2023/12/14 04:31:43;;;;;;;58.30;18.30;;;;;;;1.55;100.00;95456.98;108016;1281;22552;-80
2023/12/14 04:34:15;;;;;;;44.50;17.40;;;;;;;1.55;100.00;95461.11;108014;1281;22534;-80
2023/12/14 04:36:45;;;;;;;37.50;18.70;;;;;;;1.56;100.00;95459.05;108030;1281;22535;-80
2023/12/14 04:39:13;;;;;;;45.70;18.10;;;;;;;1.54;100.00;95462.10;108006;1282;22535;-80
2023/12/14 04:41:42;;;;;;;36.10;19.20;;;;;;;1.53;100.00;95463.75;107976;1275;22533;-80
2023/12/14 04:44:10;;;;;;;50.30;24.30;;;;;;;1.51;100.00;95463.90;108009;1281;21754;-80
2023/12/14 04:46:38;;;;;;;44.00;22.90;;;;;;;1.50;100.00;95470.48;107958;1277;22560;-80
2023/12/14 04:49:07;;;;;;;30.80;17.30;;;;;;;1.51;100.00;95471.42;108008;1282;22659;-80
2023/12/14 04:51:35;;;;;;;41.30;22.80;;;;;;;1.49;100.00;95476.84;108012;1282;24271;-80
2023/12/14 04:54:04;;;;;;;34.00;20.30;;;;;;;1.47;100.00;95481.69;108026;1276;22533;-80
2023/12/14 04:56:32;;;;;;;36.20;22.70;;;;;;;1.45;100.00;95483.97;107991;1281;22527;-80
2023/12/14 04:59:01;;;;;;;33.60;19.00;;;;;;;1.43;100.00;95488.70;107999;1281;22541;-80
2023/12/14 05:01:29;;;;;;;24.20;15.30;;;;;;;1.42;100.00;95493.92;108003;1282;24225;-80
2023/12/14 05:03:57;;;;;;;25.10;16.20;;;;;;;1.41;100.00;95496.83;107997;1279;22560;-80
2023/12/14 05:06:26;;;;;;;31.40;16.90;;;;;;;1.40;100.00;95497.77;107978;1281;23083;-80
2023/12/14 05:08:54;;;;;;;31.40;17.20;;;;;;;1.42;100.00;95499.66;107982;1282;23154;-80
2023/12/14 05:11:22;;;;;;;28.80;17.40;;;;;;;1.42;100.00;95505.84;107984;1279;22534;-80
2023/12/14 05:13:51;;;;;;;32.20;18.20;;;;;;;1.43;100.00;95509.08;107993;1282;22570;-80
2023/12/14 05:16:22;;;;;;;27.50;15.50;;;;;;;1.44;100.00;95515.09;107985;1282;23871;-80
2023/12/14 05:18:50;;;;;;;33.70;18.20;;;;;;;1.44;100.00;95521.62;107996;1279;22538;-80
2023/12/14 05:21:20;;;;;;;33.90;18.50;;;;;;;1.43;100.00;95523.44;108002;1277;22713;-80
2023/12/14 05:23:49;;;;;;;29.60;16.20;;;;;;;1.45;100.00;95531.86;107957;1282;22540;-80
2023/12/14 05:26:17;;;;;;;30.90;17.50;;;;;;;1.47;100.00;95532.61;107988;1282;22620;-80
2023/12/14 05:28:46;;;;;;;22.50;14.00;;;;;;;1.47;100.00;95535.69;107998;1274;22487;-80
2023/12/14 05:31:14;;;;;;;29.20;16.90;;;;;;;1.46;100.00;95537.04;107957;1281;23546;-80
2023/12/14 05:33:43;;;;;;;23.60;15.00;;;;;;;1.47;100.00;95541.80;107985;1282;22573;-80
2023/12/14 05:36:14;;;;;;;22.20;15.00;;;;;;;1.48;100.00;95552.98;107939;1276;22978;-80
2023/12/14 05:38:44;;;;;;;21.10;15.10;;;;;;;1.47;100.00;95551.67;108004;1282;22588;-80
2023/12/14 05:41:12;;;;;;;21.90;12.40;;;;;;;1.49;100.00;95556.65;107997;1282;22532;-80
2023/12/14 05:43:40;;;;;;;26.20;15.70;;;;;;;1.49;100.00;95560.05;108000;1281;22698;-80
2023/12/14 05:46:09;;;;;;;29.00;16.30;;;;;;;1.49;100.00;95563.29;107962;1282;25884;-80
2023/12/14 05:48:41;;;;;;;21.90;13.20;;;;;;;1.48;100.00;95567.51;107986;1259;22560;-80
2023/12/14 05:51:14;;;;;;;22.30;14.80;;;;;;;1.47;100.00;95568.39;107967;1282;22531;-80
2023/12/14 05:53:46;;;;;;;22.90;14.80;;;;;;;1.47;100.00;95572.52;107965;1275;22549;-80
2023/12/14 05:56:15;;;;;;;22.00;14.40;;;;;;;1.51;100.00;95570.40;107962;1282;22524;-80
2023/12/14 05:58:43;;;;;;;24.40;14.60;;;;;;;1.53;100.00;95571.51;107985;1280;22531;-80
2023/12/14 06:01:14;;;;;;;25.20;15.30;;;;;;;1.54;100.00;95573.25;107999;1282;22612;-80
2023/12/14 06:03:46;;;;;;;25.30;16.30;;;;;;;1.53;100.00;95573.52;107984;1282;22558;-80
2023/12/14 06:06:15;;;;;;;28.20;16.90;;;;;;;1.51;100.00;95580.11;107957;1282;22533;-80
2023/12/14 06:08:46;;;;;;;27.80;17.00;;;;;;;1.51;100.00;95583.61;108015;1281;22562;-80
2023/12/14 06:11:17;;;;;;;24.80;14.90;;;;;;;1.52;100.00;95588.16;107992;1281;22768;-80
2023/12/14 06:13:45;;;;;;;27.40;17.30;;;;;;;1.53;100.00;95586.71;107982;1277;22544;-80
2023/12/14 06:16:13;;;;;;;30.70;19.20;;;;;;;1.55;100.00;95592.08;107990;1282;23960;-80
2023/12/14 06:18:43;;;;;;;32.20;20.20;;;;;;;1.57;100.00;95596.71;108026;1280;25310;-80
2023/12/14 06:21:14;;;;;;;32.20;19.50;;;;;;;1.59;100.00;95599.33;107996;1281;22609;-80
2023/12/14 06:23:44;;;;;;;28.80;17.90;;;;;;;1.61;100.00;95602.90;107992;1281;22654;-80
2023/12/14 06:26:13;;;;;;;25.00;16.70;;;;;;;1.62;100.00;95600.98;108010;1275;22971;-80
2023/12/14 06:28:42;;;;;;;27.60;18.20;;;;;;;1.61;100.00;95604.42;108047;1281;22555;-80
2023/12/14 06:31:15;;;;;;;32.20;18.50;;;;;;;1.61;100.00;95610.52;107988;1281;22543;-80
2023/12/14 06:33:43;;;;;;;27.00;16.60;;;;;;;1.61;100.00;95615.23;107984;1281;24396;-80
2023/12/14 06:36:12;;;;;;;32.60;18.60;;;;;;;1.61;100.00;95624.57;107959;1282;22540;-80
2023/12/14 06:38:43;;;;;;;24.40;16.50;;;;;;;1.60;100.00;95627.65;108002;1281;23120;-80
2023/12/14 06:41:21;;;;;;;26.20;17.20;;;;;;;1.58;100.00;95628.68;107996;1281;22564;-80
2023/12/14 06:43:50;;;;;;;35.20;20.90;;;;;;;1.55;100.00;95632.66;108003;1275;24729;-80
2023/12/14 06:46:22;;;;;;;32.90;17.70;;;;;;;1.55;100.00;95639.45;107961;1281;24478;-80
2023/12/14 06:48:52;;;;;;;35.10;20.40;;;;;;;1.52;100.00;95639.99;108030;1280;22594;-80
2023/12/14 06:51:23;;;;;;;42.80;24.10;;;;;;;1.51;100.00;95647.04;107999;1282;23122;-80
2023/12/14 06:53:52;;;;;;;138.70;27.00;;;;;;;1.49;100.00;95652.09;108002;1281;23196;-80
2023/12/14 06:56:21;;;;;;;37.90;22.20;;;;;;;1.50;100.00;95659.40;107992;1282;22560;-80
2023/12/14 06:58:49;;;;;;;42.80;25.00;;;;;;;1.51;100.00;95662.23;108040;1281;25361;-80
2023/12/14 07:01:20;;;;;;;41.40;23.70;;;;;;;1.51;100.00;95663.48;108006;1269;24510;-80
2023/12/14 07:03:49;;;;;;;43.40;24.80;;;;;;;1.53;100.00;95670.30;108025;1281;22559;-80
2023/12/14 07:06:19;;;;;;;38.40;21.60;;;;;;;1.56;100.00;95672.45;108019;1281;22653;-80
2023/12/14 07:08:50;;;;;;;36.10;20.20;;;;;;;1.57;100.00;95673.71;108002;1281;22672;-80
2023/12/14 07:11:19;;;;;;;38.20;21.20;;;;;;;1.56;100.00;95678.09;107992;1281;25215;-80
2023/12/14 07:13:52;;;;;;;61.80;23.20;;;;;;;1.55;100.00;95677.55;108004;1282;22537;-80
2023/12/14 07:16:21;;;;;;;66.30;23.30;;;;;;;1.55;100.00;95677.02;107980;1276;25529;-80
2023/12/14 07:18:49;;;;;;;;;;;;;;;1.56;100.00;95685.45;108017;1282;22619;-80
2023/12/14 07:21:18;;;;;;;37.50;21.90;;;;;;;1.56;100.00;95687.69;107986;1281;22564;-80
2023/12/14 07:23:47;;;;;;;28.80;18.30;;;;;;;1.59;100.00;95698.96;108020;1279;22566;-80
2023/12/14 07:26:15;;;;;;;54.80;22.50;;;;;;;1.62;100.00;95695.38;107987;1281;22533;-80
2023/12/14 07:28:44;;;;;;;67.50;22.90;;;;;;;1.63;100.00;95699.98;108028;1280;22776;-80
2023/12/14 07:31:12;;;;;;;37.30;19.80;;;;;;;1.61;100.00;95694.73;107966;1282;22570;-80
2023/12/14 07:33:44;;;;;;;94.20;21.90;;;;;;;1.60;100.00;95697.81;107996;1281;25734;-80
2023/12/14 07:36:13;;;;;;;39.60;18.00;;;;;;;1.59;100.00;95699.48;107943;1281;22593;-80
2023/12/14 07:38:44;;;;;;;28.70;15.70;;;;;;;1.60;100.00;95704.24;108004;1279;22535;-80
2023/12/14 07:41:13;;;;;;;23.30;14.30;;;;;;;1.62;100.00;95712.66;107980;1281;22574;-80
2023/12/14 07:43:44;;;;;;;26.10;15.50;;;;;;;1.60;100.00;95714.48;107987;1279;22551;-80
2023/12/14 07:46:14;;;;;;;30.10;15.90;;;;;;;1.61;100.00;95717.16;107995;1281;22539;-80
2023/12/14 07:48:43;;;;;;;27.00;15.40;;;;;;;1.62;100.00;95721.14;107992;1275;25377;-80
2023/12/14 07:51:14;;;;;;;27.70;15.10;;;;;;;1.65;100.00;95726.27;107973;1281;22551;-80
2023/12/14 07:53:43;;;;;;;27.60;14.90;;;;;;;1.67;100.00;95729.45;107984;1281;22540;-80
2023/12/14 07:56:15;;;;;;;29.00;16.10;;;;;;;1.67;100.00;95734.45;108119;1281;22549;-80
2023/12/14 07:58:46;;;;;;;26.30;15.70;;;;;;;1.69;100.00;95735.02;107975;1278;22546;-80
2023/12/14 08:01:15;;;;;;;28.00;16.90;;;;;;;1.73;100.00;95737.37;107964;1282;22529;-80
2023/12/14 08:03:44;;;;;;;29.70;17.20;;;;;;;1.77;100.00;95739.98;107991;1282;24404;-80
2023/12/14 08:06:16;;;;;;;27.40;15.90;;;;;;;1.82;100.00;95746.59;108023;1282;22552;-80
2023/12/14 08:08:47;;;;;;;32.20;16.10;;;;;;;1.85;100.00;95752.56;107996;1281;22552;-80
2023/12/14 08:11:16;;;;;;;35.90;17.20;;;;;;;1.85;100.00;95756.38;107964;1281;22585;-80
2023/12/14 08:13:44;;;;;;;44.60;17.50;;;;;;;1.82;100.00;95761.19;108002;1259;22536;-80
2023/12/14 08:16:12;;;;;;;65.30;17.20;;;;;;;1.75;100.00;95763.11;107969;1276;22561;-80
2023/12/14 08:18:42;;;;;;;50.80;19.30;;;;;;;1.72;100.00;95771.69;107978;1281;22555;-80
2023/12/14 08:21:10;;;;;;;44.00;19.70;;;;;;;1.69;100.00;95775.29;107982;1281;22555;-80
2023/12/14 08:23:41;;;;;;;34.60;17.60;;;;;;;1.69;100.00;95779.39;108019;1281;22570;-80
2023/12/14 08:26:12;;;;;;;74.10;19.50;;;;;;;1.70;100.00;95785.52;107972;1281;23561;-80
2023/12/14 08:28:41;;;;;;;80.60;20.20;;;;;;;1.63;100.00;95787.82;108000;1279;25329;-80
2023/12/14 08:31:12;;;;;;;41.40;19.30;;;;;;;1.60;100.00;95793.58;108002;1281;22549;-80
2023/12/14 08:33:43;;;;;;;32.80;19.00;;;;;;;1.64;100.00;95793.20;108002;1281;22528;-80
2023/12/14 08:36:17;;;;;;;29.30;17.20;;;;;;;1.67;100.00;95796.16;107963;1280;22564;-80
2023/12/14 08:38:45;;;;;;;33.90;20.10;;;;;;;1.68;100.00;95806.58;107997;1282;24293;-80
2023/12/14 08:41:16;;;;;;;31.40;19.50;;;;;;;1.70;100.00;95811.80;107967;1282;22541;-80
2023/12/14 08:43:45;;;;;;;31.70;19.40;;;;;;;1.72;100.00;95818.47;108007;1282;25187;-80
2023/12/14 08:46:13;;;;;;;21.60;13.00;;;;;;;1.74;100.00;95820.15;107950;1276;22552;-80
2023/12/14 08:48:43;;;;;;;25.50;16.70;;;;;;;1.76;100.00;95825.61;107986;1277;22531;-80
2023/12/14 08:51:12;;;;;;;27.60;15.60;;;;;;;1.75;100.00;95824.55;107994;1279;22505;-80
2023/12/14 08:53:41;;;;;;;31.50;18.80;;;;;;;1.71;100.00;95827.59;107959;1276;22544;-80
2023/12/14 08:56:11;;;;;;;30.40;18.90;;;;;;;1.70;100.00;95829.81;108065;1281;22537;-80
2023/12/14 08:58:39;;;;;;;32.10;19.70;;;;;;;1.77;100.00;95833.73;107986;1276;22958;-80
2023/12/14 09:01:08;;;;;;;31.60;19.50;;;;;;;1.85;100.00;95839.05;107956;1282;22552;-80
2023/12/14 09:03:36;;;;;;;19.70;13.70;;;;;;;1.90;100.00;95842.14;108005;1281;22553;-80
2023/12/14 09:06:15;;;;;;;31.10;20.20;;;;;;;1.93;100.00;95844.74;107961;1280;22564;-80
2023/12/14 09:08:44;;;;;;;38.70;23.20;;;;;;;1.95;100.00;95853.13;107973;1281;25335;-81
2023/12/14 09:11:15;;;;;;;;;;;;;;;1.95;100.00;95854.48;108002;1281;22518;-81
2023/12/14 09:13:43;;;;;;;35.30;20.80;;;;;;;1.97;100.00;95856.40;107958;1281;22537;-81
2023/12/14 09:16:13;;;;;;;33.40;21.20;;;;;;;1.98;100.00;95858.42;107965;1281;22554;-81
2023/12/14 09:18:42;;;;;;;34.70;20.40;;;;;;;1.98;100.00;95861.88;107994;1281;22563;-81
2023/12/14 09:21:10;;;;;;;;;;;;;;;1.95;100.00;95864.53;107994;1281;22508;-81
2023/12/14 09:23:40;;;;;;;31.30;18.20;;;;;;;1.87;100.00;95869.30;107970;1281;22537;-81
2023/12/14 09:26:10;;;;;;;31.30;19.10;;;;;;;1.86;100.00;95875.30;107971;1281;24491;-81
2023/12/14 09:28:39;;;;;;;29.30;18.70;;;;;;;1.90;100.00;95877.38;107981;1279;22546;-81
2023/12/14 09:31:07;;;;;;;;;;;;;;;1.92;100.00;95882.37;107964;1281;22517;-81
2023/12/14 09:33:35;;;;;;;29.20;17.90;;;;;;;1.91;100.00;95884.98;107969;1279;22567;-81
2023/12/14 09:36:04;;;;;;;36.70;21.30;;;;;;;1.91;100.00;95883.14;107918;1281;25378;-81
2023/12/14 09:38:31;;;;;;;;;;;;;;;1.87;100.00;95886.23;108054;1275;22736;-81
2023/12/14 09:41:00;;;;;;;33.10;19.00;;;;;;;1.85;100.00;95888.14;107973;1280;22541;-80
2023/12/14 09:43:29;;;;;;;38.10;21.50;;;;;;;1.88;100.00;95889.80;107964;1280;25297;-81
2023/12/14 09:45:57;;;;;;;33.90;19.40;;;;;;;1.89;100.00;95889.34;107966;1281;22636;-81
2023/12/14 09:48:28;;;;;;;34.70;18.60;;;;;;;1.91;100.00;95890.73;107974;1282;22536;-81
2023/12/14 09:50:58;;;;;;;32.30;19.30;;;;;;;1.87;100.00;95890.73;107987;1281;22721;-81
2023/12/14 09:53:26;;;;;;;28.80;17.90;;;;;;;1.86;100.00;95890.83;107971;1282;22543;-81
2023/12/14 09:55:55;;;;;;;24.50;16.70;;;;;;;1.84;100.00;95895.55;107957;1280;22624;-80
2023/12/14 09:58:23;;;;;;;32.20;17.90;;;;;;;1.80;100.00;95894.27;108008;1281;24370;-81
2023/12/14 10:00:52;;;;;;;30.00;18.10;;;;;;;1.77;100.00;95896.95;107963;1281;22552;-81
2023/12/14 10:03:23;;;;;;;46.00;27.40;;;;;;;1.78;100.00;95893.95;107978;1281;22228;-81
2023/12/14 10:05:52;;;;;;;37.60;23.60;;;;;;;1.78;100.00;95898.23;108032;1281;22550;-81
2023/12/14 10:08:21;;;;;;;42.40;26.10;;;;;;;1.74;100.00;95895.10;108001;1281;22560;-81
2023/12/14 10:10:52;;;;;;;29.40;19.20;;;;;;;1.78;100.00;95895.77;107961;1281;25416;-80
2023/12/14 10:13:22;;;;;;;27.50;18.60;;;;;;;1.86;100.00;95895.30;107951;1277;22546;-81
2023/12/14 10:15:51;;;;;;;24.70;16.90;;;;;;;1.91;100.00;95896.84;107990;1281;22608;-80
2023/12/14 10:18:24;;;;;;;24.40;16.70;;;;;;;1.98;100.00;95892.48;107960;1281;24346;-81
2023/12/14 10:20:52;;;;;;;22.10;14.30;;;;;;;2.05;100.00;95895.62;107957;1281;22552;-81
2023/12/14 10:23:21;;;;;;;21.10;13.00;;;;;;;2.10;100.00;95896.83;107993;1281;26036;-81
2023/12/14 10:25:50;;;;;;;19.30;12.90;;;;;;;2.12;100.00;95895.71;107983;1281;22530;-81
2023/12/14 10:28:19;;;;;;;21.60;13.60;;;;;;;2.09;100.00;95897.86;107978;1275;22541;-81
2023/12/14 10:30:47;;;;;;;;;;;;;;;2.08;100.00;95900.58;108068;1281;22555;-80
2023/12/14 10:33:16;;;;;;;18.10;12.30;;;;;;;2.13;100.00;95903.94;107983;1281;22550;-80
2023/12/14 10:35:46;;;;;;;17.00;10.20;;;;;;;2.16;100.00;95902.35;107982;1281;22610;-80
2023/12/14 10:38:17;;;;;;;15.90;10.70;;;;;;;2.14;100.00;95908.23;107979;1281;22571;-80
2023/12/14 10:40:46;;;;;;;15.40;10.30;;;;;;;2.09;100.00;95906.48;108070;1281;22584;-81
2023/12/14 10:43:15;;;;;;;15.40;10.60;;;;;;;2.09;100.00;95907.63;107996;1277;22541;-80
2023/12/14 10:45:47;;;;;;;14.40;10.50;;;;;;;2.08;100.00;95907.98;107978;1281;24347;-80
2023/12/14 10:48:20;;;;;;;14.90;10.40;;;;;;;2.05;100.00;95913.92;107995;1281;22543;-80
2023/12/14 10:50:50;;;;;;;16.90;10.10;;;;;;;2.06;100.00;95917.48;107966;1281;22540;-80
2023/12/14 10:53:21;;;;;;;16.00;11.20;;;;;;;2.08;100.00;95919.02;108019;1281;22542;-81
2023/12/14 10:55:51;;;;;;;15.60;10.90;;;;;;;2.11;100.00;95920.16;107969;1281;25347;-80
2023/12/14 10:58:21;;;;;;;15.70;11.00;;;;;;;2.14;100.00;95924.71;108061;1281;22544;-80
2023/12/14 11:00:58;;;;;;;;;;;;;;;2.16;100.00;95928.50;107991;1277;22778;-80
2023/12/14 11:03:34;;;;;;;15.10;10.80;;;;;;;2.17;100.00;95934.21;107998;1281;22563;-81
2023/12/14 11:06:04;;;;;;;19.60;12.70;;;;;;;2.19;100.00;95940.52;108066;1281;22552;-80
2023/12/14 11:08:35;;;;;;;17.60;12.00;;;;;;;2.19;100.00;95941.40;108003;1281;22563;-81
2023/12/14 11:11:10;;;;;;;15.80;11.90;;;;;;;2.18;100.00;95944.59;108033;1275;22593;-80
2023/12/14 11:13:42;;;;;;;17.90;12.20;;;;;;;2.17;100.00;95946.14;107999;1279;22551;-80
2023/12/14 11:16:10;;;;;;;17.60;13.50;;;;;;;2.15;100.00;95942.20;107999;1281;22583;-80
2023/12/14 11:18:40;;;;;;;17.20;13.40;;;;;;;2.15;100.00;95942.09;108043;1281;22630;-80